sensor_id;sensor_type;location;lat;lon;timestamp;P1;durP1;ratioP1;P2;durP2;ratioP2
42260;SDS011;27926;48.062;7.474;2023-02-26T00:01:28;10.43;;;2.77;;
42260;SDS011;27926;48.062;7.474;2023-02-26T00:03:55;11.88;;;2.80;;
42260;SDS011;27926;48.062;7.474;2023-02-26T00:06:21;7.63;;;2.65;;
42260;SDS011;27926;48.062;7.474;2023-02-26T00:08:46;9.05;;;2.28;;
42260;SDS011;27926;48.062;7.474;2023-02-26T00:11:11;13.53;;;2.13;;
42260;SDS011;27926;48.062;7.474;2023-02-26T00:13:36;10.63;;;2.03;;
42260;SDS011;27926;48.062;7.474;2023-02-26T00:16:02;2.72;;;1.45;;
42260;SDS011;27926;48.062;7.474;2023-02-26T00:18:29;6.47;;;1.65;;
42260;SDS011;27926;48.062;7.474;2023-02-26T00:20:54;5.13;;;1.70;;
42260;SDS011;27926;48.062;7.474;2023-02-26T00:23:19;9.23;;;2.05;;
42260;SDS011;27926;48.062;7.474;2023-02-26T00:25:44;2.78;;;1.17;;
42260;SDS011;27926;48.062;7.474;2023-02-26T00:28:09;4.22;;;1.23;;
42260;SDS011;27926;48.062;7.474;2023-02-26T00:30:34;1.65;;;1.00;;
42260;SDS011;27926;48.062;7.474;2023-02-26T00:32:59;2.90;;;1.20;;
42260;SDS011;27926;48.062;7.474;2023-02-26T00:35:24;1.10;;;0.90;;
42260;SDS011;27926;48.062;7.474;2023-02-26T00:42:45;8.27;;;2.13;;
42260;SDS011;27926;48.062;7.474;2023-02-26T00:45:10;4.93;;;2.00;;
42260;SDS011;27926;48.062;7.474;2023-02-26T00:50:15;5.80;;;1.95;;
42260;SDS011;27926;48.062;7.474;2023-02-26T00:52:43;14.95;;;3.13;;
42260;SDS011;27926;48.062;7.474;2023-02-26T00:55:16;3.17;;;1.70;;
42260;SDS011;27926;48.062;7.474;2023-02-26T00:57:42;7.47;;;2.08;;
42260;SDS011;27926;48.062;7.474;2023-02-26T01:00:07;4.47;;;2.27;;
42260;SDS011;27926;48.062;7.474;2023-02-26T01:02:36;9.35;;;2.00;;
42260;SDS011;27926;48.062;7.474;2023-02-26T01:05:04;5.68;;;2.05;;
42260;SDS011;27926;48.062;7.474;2023-02-26T01:07:31;13.95;;;2.95;;
42260;SDS011;27926;48.062;7.474;2023-02-26T01:10:01;5.22;;;1.67;;
42260;SDS011;27926;48.062;7.474;2023-02-26T01:12:26;6.80;;;2.07;;
42260;SDS011;27926;48.062;7.474;2023-02-26T01:14:51;7.40;;;2.20;;
42260;SDS011;27926;48.062;7.474;2023-02-26T01:20:04;6.97;;;1.75;;
42260;SDS011;27926;48.062;7.474;2023-02-26T01:22:34;8.25;;;1.95;;
42260;SDS011;27926;48.062;7.474;2023-02-26T01:25:20;8.07;;;1.95;;
42260;SDS011;27926;48.062;7.474;2023-02-26T01:27:48;7.60;;;2.28;;
42260;SDS011;27926;48.062;7.474;2023-02-26T01:30:13;13.37;;;2.27;;
42260;SDS011;27926;48.062;7.474;2023-02-26T01:35:43;8.98;;;1.98;;
42260;SDS011;27926;48.062;7.474;2023-02-26T01:38:58;6.13;;;1.90;;
42260;SDS011;27926;48.062;7.474;2023-02-26T01:43:41;12.10;;;2.50;;
42260;SDS011;27926;48.062;7.474;2023-02-26T01:46:18;8.35;;;1.65;;
42260;SDS011;27926;48.062;7.474;2023-02-26T01:48:57;7.05;;;2.00;;
42260;SDS011;27926;48.062;7.474;2023-02-26T01:51:40;7.53;;;2.72;;
42260;SDS011;27926;48.062;7.474;2023-02-26T01:54:04;8.85;;;2.03;;
42260;SDS011;27926;48.062;7.474;2023-02-26T01:56:29;7.70;;;2.13;;
42260;SDS011;27926;48.062;7.474;2023-02-26T01:58:54;10.40;;;2.30;;
42260;SDS011;27926;48.062;7.474;2023-02-26T02:01:18;7.70;;;2.00;;
42260;SDS011;27926;48.062;7.474;2023-02-26T02:03:43;16.50;;;2.70;;
42260;SDS011;27926;48.062;7.474;2023-02-26T02:06:16;3.75;;;2.15;;
42260;SDS011;27926;48.062;7.474;2023-02-26T02:08:45;12.73;;;2.67;;
42260;SDS011;27926;48.062;7.474;2023-02-26T02:11:10;4.63;;;2.30;;
42260;SDS011;27926;48.062;7.474;2023-02-26T02:24:38;11.50;;;2.10;;
42260;SDS011;27926;48.062;7.474;2023-02-26T02:27:17;14.40;;;2.20;;
42260;SDS011;27926;48.062;7.474;2023-02-26T02:32:38;3.63;;;1.70;;
42260;SDS011;27926;48.062;7.474;2023-02-26T02:35:14;8.23;;;1.80;;
42260;SDS011;27926;48.062;7.474;2023-02-26T02:37:46;9.27;;;2.17;;
42260;SDS011;27926;48.062;7.474;2023-02-26T02:40:18;2.97;;;1.63;;
42260;SDS011;27926;48.062;7.474;2023-02-26T02:45:34;8.95;;;2.28;;
42260;SDS011;27926;48.062;7.474;2023-02-26T02:48:10;6.82;;;1.80;;
42260;SDS011;27926;48.062;7.474;2023-02-26T02:50:41;3.85;;;1.67;;
42260;SDS011;27926;48.062;7.474;2023-02-26T02:56:15;15.52;;;2.42;;
42260;SDS011;27926;48.062;7.474;2023-02-26T02:59:23;5.07;;;1.88;;
42260;SDS011;27926;48.062;7.474;2023-02-26T03:01:56;4.32;;;2.20;;
42260;SDS011;27926;48.062;7.474;2023-02-26T03:04:29;4.88;;;2.20;;
42260;SDS011;27926;48.062;7.474;2023-02-26T03:06:54;5.87;;;2.63;;
42260;SDS011;27926;48.062;7.474;2023-02-26T03:09:19;8.73;;;2.07;;
42260;SDS011;27926;48.062;7.474;2023-02-26T03:11:43;4.07;;;2.23;;
42260;SDS011;27926;48.062;7.474;2023-02-26T03:14:08;10.20;;;2.20;;
42260;SDS011;27926;48.062;7.474;2023-02-26T03:21:55;9.48;;;3.13;;
42260;SDS011;27926;48.062;7.474;2023-02-26T03:27:30;7.32;;;1.90;;
42260;SDS011;27926;48.062;7.474;2023-02-26T03:35:12;9.07;;;2.00;;
42260;SDS011;27926;48.062;7.474;2023-02-26T03:40:14;11.23;;;2.15;;
42260;SDS011;27926;48.062;7.474;2023-02-26T03:42:45;6.10;;;2.03;;
42260;SDS011;27926;48.062;7.474;2023-02-26T03:45:19;22.40;;;2.53;;
42260;SDS011;27926;48.062;7.474;2023-02-26T03:47:49;5.43;;;2.08;;
42260;SDS011;27926;48.062;7.474;2023-02-26T03:53:00;8.00;;;2.03;;
42260;SDS011;27926;48.062;7.474;2023-02-26T03:55:31;9.60;;;2.60;;
42260;SDS011;27926;48.062;7.474;2023-02-26T03:58:17;13.20;;;2.75;;
42260;SDS011;27926;48.062;7.474;2023-02-26T04:00:43;12.17;;;2.90;;
42260;SDS011;27926;48.062;7.474;2023-02-26T04:03:12;9.27;;;2.80;;
42260;SDS011;27926;48.062;7.474;2023-02-26T04:05:44;7.93;;;1.83;;
42260;SDS011;27926;48.062;7.474;2023-02-26T04:08:12;9.80;;;2.53;;
42260;SDS011;27926;48.062;7.474;2023-02-26T04:10:44;10.23;;;2.57;;
42260;SDS011;27926;48.062;7.474;2023-02-26T04:13:15;9.38;;;2.78;;
42260;SDS011;27926;48.062;7.474;2023-02-26T04:15:39;8.80;;;2.43;;
42260;SDS011;27926;48.062;7.474;2023-02-26T04:18:04;2.80;;;1.53;;
42260;SDS011;27926;48.062;7.474;2023-02-26T04:20:29;11.40;;;2.40;;
42260;SDS011;27926;48.062;7.474;2023-02-26T04:22:56;10.73;;;2.50;;
42260;SDS011;27926;48.062;7.474;2023-02-26T04:25:21;7.43;;;2.60;;
42260;SDS011;27926;48.062;7.474;2023-02-26T04:27:45;8.30;;;2.50;;
42260;SDS011;27926;48.062;7.474;2023-02-26T04:30:10;7.57;;;2.60;;
42260;SDS011;27926;48.062;7.474;2023-02-26T04:32:35;6.20;;;3.13;;
42260;SDS011;27926;48.062;7.474;2023-02-26T04:34:59;5.67;;;2.60;;
42260;SDS011;27926;48.062;7.474;2023-02-26T04:37:24;6.33;;;2.27;;
42260;SDS011;27926;48.062;7.474;2023-02-26T04:39:48;12.93;;;2.53;;
42260;SDS011;27926;48.062;7.474;2023-02-26T04:42:13;6.13;;;2.27;;
42260;SDS011;27926;48.062;7.474;2023-02-26T04:44:38;6.57;;;2.90;;
42260;SDS011;27926;48.062;7.474;2023-02-26T04:47:02;12.43;;;2.37;;
42260;SDS011;27926;48.062;7.474;2023-02-26T04:49:27;10.03;;;2.77;;
42260;SDS011;27926;48.062;7.474;2023-02-26T04:51:52;13.77;;;2.80;;
42260;SDS011;27926;48.062;7.474;2023-02-26T04:54:16;10.77;;;3.07;;
42260;SDS011;27926;48.062;7.474;2023-02-26T04:56:42;3.63;;;2.03;;
42260;SDS011;27926;48.062;7.474;2023-02-26T04:59:07;13.00;;;2.70;;
42260;SDS011;27926;48.062;7.474;2023-02-26T05:01:31;4.63;;;2.53;;
42260;SDS011;27926;48.062;7.474;2023-02-26T05:03:56;4.77;;;2.50;;
42260;SDS011;27926;48.062;7.474;2023-02-26T05:06:21;7.50;;;2.70;;
42260;SDS011;27926;48.062;7.474;2023-02-26T05:08:45;10.77;;;2.70;;
42260;SDS011;27926;48.062;7.474;2023-02-26T05:11:10;5.13;;;2.63;;
42260;SDS011;27926;48.062;7.474;2023-02-26T05:13:35;6.15;;;2.45;;
42260;SDS011;27926;48.062;7.474;2023-02-26T05:16:00;12.20;;;3.10;;
42260;SDS011;27926;48.062;7.474;2023-02-26T05:18:25;8.33;;;2.50;;
42260;SDS011;27926;48.062;7.474;2023-02-26T05:20:53;7.93;;;2.80;;
42260;SDS011;27926;48.062;7.474;2023-02-26T05:23:18;4.40;;;2.45;;
42260;SDS011;27926;48.062;7.474;2023-02-26T05:25:43;4.10;;;2.13;;
42260;SDS011;27926;48.062;7.474;2023-02-26T05:28:08;6.93;;;2.00;;
42260;SDS011;27926;48.062;7.474;2023-02-26T05:30:32;5.37;;;2.87;;
42260;SDS011;27926;48.062;7.474;2023-02-26T05:32:57;12.77;;;3.33;;
42260;SDS011;27926;48.062;7.474;2023-02-26T05:35:21;4.70;;;2.43;;
42260;SDS011;27926;48.062;7.474;2023-02-26T05:37:46;5.07;;;2.93;;
42260;SDS011;27926;48.062;7.474;2023-02-26T05:40:10;16.00;;;3.23;;
42260;SDS011;27926;48.062;7.474;2023-02-26T05:42:36;7.43;;;2.92;;
42260;SDS011;27926;48.062;7.474;2023-02-26T05:45:01;10.50;;;3.45;;
42260;SDS011;27926;48.062;7.474;2023-02-26T05:47:28;5.05;;;2.22;;
42260;SDS011;27926;48.062;7.474;2023-02-26T05:49:53;4.13;;;2.47;;
42260;SDS011;27926;48.062;7.474;2023-02-26T05:52:17;6.47;;;2.57;;
42260;SDS011;27926;48.062;7.474;2023-02-26T05:54:42;8.70;;;3.33;;
42260;SDS011;27926;48.062;7.474;2023-02-26T05:57:07;8.63;;;2.70;;
42260;SDS011;27926;48.062;7.474;2023-02-26T05:59:31;17.33;;;2.10;;
42260;SDS011;27926;48.062;7.474;2023-02-26T06:01:56;10.00;;;3.33;;
42260;SDS011;27926;48.062;7.474;2023-02-26T06:04:22;9.55;;;2.63;;
42260;SDS011;27926;48.062;7.474;2023-02-26T06:06:47;7.60;;;2.78;;
42260;SDS011;27926;48.062;7.474;2023-02-26T06:09:12;14.20;;;2.83;;
42260;SDS011;27926;48.062;7.474;2023-02-26T06:11:36;6.40;;;2.47;;
42260;SDS011;27926;48.062;7.474;2023-02-26T06:14:02;7.10;;;3.03;;
42260;SDS011;27926;48.062;7.474;2023-02-26T06:16:27;5.83;;;3.00;;
42260;SDS011;27926;48.062;7.474;2023-02-26T06:18:51;8.53;;;3.00;;
42260;SDS011;27926;48.062;7.474;2023-02-26T06:21:16;10.60;;;2.77;;
42260;SDS011;27926;48.062;7.474;2023-02-26T06:23:41;13.48;;;3.30;;
42260;SDS011;27926;48.062;7.474;2023-02-26T06:26:06;7.73;;;2.37;;
42260;SDS011;27926;48.062;7.474;2023-02-26T06:28:31;6.63;;;3.07;;
42260;SDS011;27926;48.062;7.474;2023-02-26T06:30:56;14.40;;;3.17;;
42260;SDS011;27926;48.062;7.474;2023-02-26T06:33:20;9.30;;;2.87;;
42260;SDS011;27926;48.062;7.474;2023-02-26T06:35:45;12.43;;;3.40;;
42260;SDS011;27926;48.062;7.474;2023-02-26T06:38:10;7.63;;;3.37;;
42260;SDS011;27926;48.062;7.474;2023-02-26T06:40:35;8.67;;;2.80;;
42260;SDS011;27926;48.062;7.474;2023-02-26T06:43:00;6.03;;;2.93;;
42260;SDS011;27926;48.062;7.474;2023-02-26T06:45:24;7.03;;;2.87;;
42260;SDS011;27926;48.062;7.474;2023-02-26T06:47:49;8.77;;;3.07;;
42260;SDS011;27926;48.062;7.474;2023-02-26T06:50:14;8.68;;;3.03;;
42260;SDS011;27926;48.062;7.474;2023-02-26T06:52:39;3.93;;;2.63;;
42260;SDS011;27926;48.062;7.474;2023-02-26T06:55:03;16.20;;;4.10;;
42260;SDS011;27926;48.062;7.474;2023-02-26T06:57:28;10.25;;;3.33;;
42260;SDS011;27926;48.062;7.474;2023-02-26T06:59:53;12.80;;;3.33;;
42260;SDS011;27926;48.062;7.474;2023-02-26T07:02:18;7.77;;;2.80;;
42260;SDS011;27926;48.062;7.474;2023-02-26T07:04:44;14.82;;;3.92;;
42260;SDS011;27926;48.062;7.474;2023-02-26T07:07:09;12.00;;;3.23;;
42260;SDS011;27926;48.062;7.474;2023-02-26T07:09:34;6.90;;;3.27;;
42260;SDS011;27926;48.062;7.474;2023-02-26T07:11:58;6.80;;;2.80;;
42260;SDS011;27926;48.062;7.474;2023-02-26T07:14:23;9.40;;;2.87;;
42260;SDS011;27926;48.062;7.474;2023-02-26T07:16:48;8.27;;;3.30;;
42260;SDS011;27926;48.062;7.474;2023-02-26T07:19:12;12.87;;;2.50;;
42260;SDS011;27926;48.062;7.474;2023-02-26T07:21:37;11.17;;;3.77;;
42260;SDS011;27926;48.062;7.474;2023-02-26T07:24:02;16.27;;;3.70;;
42260;SDS011;27926;48.062;7.474;2023-02-26T07:26:26;8.20;;;2.57;;
42260;SDS011;27926;48.062;7.474;2023-02-26T07:28:51;15.60;;;3.67;;
42260;SDS011;27926;48.062;7.474;2023-02-26T07:31:15;9.97;;;3.53;;
42260;SDS011;27926;48.062;7.474;2023-02-26T07:33:40;6.07;;;3.03;;
42260;SDS011;27926;48.062;7.474;2023-02-26T07:36:05;14.33;;;4.03;;
42260;SDS011;27926;48.062;7.474;2023-02-26T07:38:30;8.97;;;3.30;;
42260;SDS011;27926;48.062;7.474;2023-02-26T07:40:54;9.37;;;2.97;;
42260;SDS011;27926;48.062;7.474;2023-02-26T07:43:19;13.07;;;5.43;;
42260;SDS011;27926;48.062;7.474;2023-02-26T07:45:44;10.30;;;3.10;;
42260;SDS011;27926;48.062;7.474;2023-02-26T07:48:08;9.63;;;3.70;;
42260;SDS011;27926;48.062;7.474;2023-02-26T07:50:33;6.47;;;3.13;;
42260;SDS011;27926;48.062;7.474;2023-02-26T07:52:57;9.97;;;3.83;;
42260;SDS011;27926;48.062;7.474;2023-02-26T07:55:22;16.70;;;4.00;;
42260;SDS011;27926;48.062;7.474;2023-02-26T07:57:47;13.83;;;4.17;;
42260;SDS011;27926;48.062;7.474;2023-02-26T08:02:38;4.82;;;2.63;;
42260;SDS011;27926;48.062;7.474;2023-02-26T08:05:02;7.73;;;3.30;;
42260;SDS011;27926;48.062;7.474;2023-02-26T08:07:27;11.20;;;3.67;;
42260;SDS011;27926;48.062;7.474;2023-02-26T08:09:52;12.67;;;3.50;;
42260;SDS011;27926;48.062;7.474;2023-02-26T08:12:17;14.50;;;4.03;;
42260;SDS011;27926;48.062;7.474;2023-02-26T08:14:41;7.13;;;2.93;;
42260;SDS011;27926;48.062;7.474;2023-02-26T08:17:09;11.13;;;3.67;;
42260;SDS011;27926;48.062;7.474;2023-02-26T08:19:34;10.05;;;3.95;;
42260;SDS011;27926;48.062;7.474;2023-02-26T08:21:59;10.63;;;3.57;;
42260;SDS011;27926;48.062;7.474;2023-02-26T08:24:23;16.73;;;3.20;;
42260;SDS011;27926;48.062;7.474;2023-02-26T08:26:48;16.40;;;2.83;;
42260;SDS011;27926;48.062;7.474;2023-02-26T08:29:13;12.70;;;3.67;;
42260;SDS011;27926;48.062;7.474;2023-02-26T08:31:38;12.97;;;3.70;;
42260;SDS011;27926;48.062;7.474;2023-02-26T08:34:02;14.20;;;4.20;;
42260;SDS011;27926;48.062;7.474;2023-02-26T08:36:27;9.50;;;3.13;;
42260;SDS011;27926;48.062;7.474;2023-02-26T08:38:52;6.57;;;3.00;;
42260;SDS011;27926;48.062;7.474;2023-02-26T08:41:16;12.33;;;2.90;;
42260;SDS011;27926;48.062;7.474;2023-02-26T08:43:41;8.33;;;4.27;;
42260;SDS011;27926;48.062;7.474;2023-02-26T08:46:05;23.40;;;3.07;;
42260;SDS011;27926;48.062;7.474;2023-02-26T08:48:30;16.33;;;2.73;;
42260;SDS011;27926;48.062;7.474;2023-02-26T08:50:55;12.03;;;2.73;;
42260;SDS011;27926;48.062;7.474;2023-02-26T08:53:19;15.10;;;3.10;;
42260;SDS011;27926;48.062;7.474;2023-02-26T08:55:48;12.07;;;2.67;;
42260;SDS011;27926;48.062;7.474;2023-02-26T08:58:14;8.57;;;3.25;;
42260;SDS011;27926;48.062;7.474;2023-02-26T09:00:39;8.23;;;2.72;;
42260;SDS011;27926;48.062;7.474;2023-02-26T09:03:04;11.63;;;3.40;;
42260;SDS011;27926;48.062;7.474;2023-02-26T09:05:28;7.00;;;2.60;;
42260;SDS011;27926;48.062;7.474;2023-02-26T09:07:53;3.60;;;2.07;;
42260;SDS011;27926;48.062;7.474;2023-02-26T09:10:18;11.53;;;2.67;;
42260;SDS011;27926;48.062;7.474;2023-02-26T09:12:43;13.43;;;2.87;;
42260;SDS011;27926;48.062;7.474;2023-02-26T09:15:10;7.75;;;1.92;;
42260;SDS011;27926;48.062;7.474;2023-02-26T09:17:35;2.85;;;1.80;;
42260;SDS011;27926;48.062;7.474;2023-02-26T09:20:00;7.30;;;2.97;;
42260;SDS011;27926;48.062;7.474;2023-02-26T09:22:25;12.65;;;2.58;;
42260;SDS011;27926;48.062;7.474;2023-02-26T09:24:49;9.27;;;3.10;;
42260;SDS011;27926;48.062;7.474;2023-02-26T09:27:14;4.72;;;2.15;;
42260;SDS011;27926;48.062;7.474;2023-02-26T09:29:39;13.88;;;3.28;;
42260;SDS011;27926;48.062;7.474;2023-02-26T09:32:05;9.20;;;2.65;;
42260;SDS011;27926;48.062;7.474;2023-02-26T09:34:31;5.35;;;2.22;;
42260;SDS011;27926;48.062;7.474;2023-02-26T09:36:55;4.40;;;2.00;;
42260;SDS011;27926;48.062;7.474;2023-02-26T09:39:20;10.02;;;3.15;;
42260;SDS011;27926;48.062;7.474;2023-02-26T09:41:48;10.45;;;2.70;;
42260;SDS011;27926;48.062;7.474;2023-02-26T09:44:16;12.77;;;2.22;;
42260;SDS011;27926;48.062;7.474;2023-02-26T09:46:53;7.78;;;1.90;;
42260;SDS011;27926;48.062;7.474;2023-02-26T09:49:20;12.18;;;2.25;;
42260;SDS011;27926;48.062;7.474;2023-02-26T09:54:48;9.13;;;2.92;;
42260;SDS011;27926;48.062;7.474;2023-02-26T09:57:30;5.78;;;2.20;;
42260;SDS011;27926;48.062;7.474;2023-02-26T09:59:56;3.85;;;1.75;;
42260;SDS011;27926;48.062;7.474;2023-02-26T10:02:36;5.60;;;1.67;;
42260;SDS011;27926;48.062;7.474;2023-02-26T10:07:48;18.38;;;2.13;;
42260;SDS011;27926;48.062;7.474;2023-02-26T10:10:46;8.60;;;1.67;;
42260;SDS011;27926;48.062;7.474;2023-02-26T10:13:26;17.08;;;2.05;;
42260;SDS011;27926;48.062;7.474;2023-02-26T10:16:08;7.60;;;2.60;;
42260;SDS011;27926;48.062;7.474;2023-02-26T10:18:39;9.82;;;2.40;;
42260;SDS011;27926;48.062;7.474;2023-02-26T10:21:13;6.68;;;1.95;;
42260;SDS011;27926;48.062;7.474;2023-02-26T10:23:42;7.35;;;1.88;;
42260;SDS011;27926;48.062;7.474;2023-02-26T10:26:22;6.60;;;1.77;;
42260;SDS011;27926;48.062;7.474;2023-02-26T10:40:16;4.55;;;1.88;;
42260;SDS011;27926;48.062;7.474;2023-02-26T10:42:58;8.60;;;2.13;;
42260;SDS011;27926;48.062;7.474;2023-02-26T10:48:25;6.30;;;1.95;;
42260;SDS011;27926;48.062;7.474;2023-02-26T10:50:56;4.25;;;1.98;;
42260;SDS011;27926;48.062;7.474;2023-02-26T10:53:22;4.18;;;1.88;;
42260;SDS011;27926;48.062;7.474;2023-02-26T10:55:50;8.48;;;2.28;;
42260;SDS011;27926;48.062;7.474;2023-02-26T10:58:22;11.65;;;2.20;;
42260;SDS011;27926;48.062;7.474;2023-02-26T11:00:49;3.30;;;1.25;;
42260;SDS011;27926;48.062;7.474;2023-02-26T11:03:18;6.75;;;2.13;;
42260;SDS011;27926;48.062;7.474;2023-02-26T11:05:44;11.32;;;1.80;;
42260;SDS011;27926;48.062;7.474;2023-02-26T11:08:18;6.70;;;2.13;;
42260;SDS011;27926;48.062;7.474;2023-02-26T11:10:50;15.55;;;1.98;;
42260;SDS011;27926;48.062;7.474;2023-02-26T11:13:20;5.05;;;1.83;;
42260;SDS011;27926;48.062;7.474;2023-02-26T11:15:47;1.98;;;1.52;;
42260;SDS011;27926;48.062;7.474;2023-02-26T11:18:14;2.65;;;1.17;;
42260;SDS011;27926;48.062;7.474;2023-02-26T11:20:44;7.22;;;1.55;;
42260;SDS011;27926;48.062;7.474;2023-02-26T11:23:13;2.70;;;1.08;;
42260;SDS011;27926;48.062;7.474;2023-02-26T11:25:41;6.63;;;1.70;;
42260;SDS011;27926;48.062;7.474;2023-02-26T11:28:24;4.28;;;1.10;;
42260;SDS011;27926;48.062;7.474;2023-02-26T11:30:55;1.92;;;1.05;;
42260;SDS011;27926;48.062;7.474;2023-02-26T11:33:21;5.72;;;1.38;;
42260;SDS011;27926;48.062;7.474;2023-02-26T11:35:50;4.38;;;1.08;;
42260;SDS011;27926;48.062;7.474;2023-02-26T11:38:20;4.45;;;1.20;;
42260;SDS011;27926;48.062;7.474;2023-02-26T11:40:50;1.50;;;0.98;;
42260;SDS011;27926;48.062;7.474;2023-02-26T11:43:18;2.78;;;1.27;;
42260;SDS011;27926;48.062;7.474;2023-02-26T11:45:44;6.80;;;1.30;;
42260;SDS011;27926;48.062;7.474;2023-02-26T11:48:22;10.02;;;1.48;;
42260;SDS011;27926;48.062;7.474;2023-02-26T11:50:51;3.13;;;0.90;;
42260;SDS011;27926;48.062;7.474;2023-02-26T11:53:29;5.82;;;1.55;;
42260;SDS011;27926;48.062;7.474;2023-02-26T11:56:01;5.88;;;1.20;;
42260;SDS011;27926;48.062;7.474;2023-02-26T11:58:37;3.30;;;1.02;;
42260;SDS011;27926;48.062;7.474;2023-02-26T12:01:04;9.48;;;1.48;;
42260;SDS011;27926;48.062;7.474;2023-02-26T12:03:36;9.48;;;1.30;;
42260;SDS011;27926;48.062;7.474;2023-02-26T12:06:05;8.82;;;1.33;;
42260;SDS011;27926;48.062;7.474;2023-02-26T12:08:37;4.45;;;1.27;;
42260;SDS011;27926;48.062;7.474;2023-02-26T12:16:42;9.75;;;2.65;;
42260;SDS011;27926;48.062;7.474;2023-02-26T12:27:30;7.25;;;1.60;;
42260;SDS011;27926;48.062;7.474;2023-02-26T12:30:23;3.33;;;1.30;;
42260;SDS011;27926;48.062;7.474;2023-02-26T12:43:43;6.85;;;1.45;;
42260;SDS011;27926;48.062;7.474;2023-02-26T13:02:17;3.95;;;2.15;;
42260;SDS011;27926;48.062;7.474;2023-02-26T13:13:20;6.32;;;1.77;;
42260;SDS011;27926;48.062;7.474;2023-02-26T13:16:16;4.78;;;1.38;;
42260;SDS011;27926;48.062;7.474;2023-02-26T13:21:31;4.05;;;1.30;;
42260;SDS011;27926;48.062;7.474;2023-02-26T13:24:01;3.60;;;1.50;;
42260;SDS011;27926;48.062;7.474;2023-02-26T13:26:30;3.47;;;1.20;;
42260;SDS011;27926;48.062;7.474;2023-02-26T13:28:58;4.97;;;1.30;;
42260;SDS011;27926;48.062;7.474;2023-02-26T13:31:49;3.45;;;0.90;;
42260;SDS011;27926;48.062;7.474;2023-02-26T13:37:04;4.50;;;1.85;;
42260;SDS011;27926;48.062;7.474;2023-02-26T13:45:47;8.10;;;1.17;;
42260;SDS011;27926;48.062;7.474;2023-02-26T13:55:52;3.80;;;1.35;;
42260;SDS011;27926;48.062;7.474;2023-02-26T14:00:46;3.65;;;1.30;;
42260;SDS011;27926;48.062;7.474;2023-02-26T14:05:52;5.43;;;1.13;;
42260;SDS011;27926;48.062;7.474;2023-02-26T14:13:40;6.07;;;1.13;;
42260;SDS011;27926;48.062;7.474;2023-02-26T14:24:31;5.00;;;1.05;;
42260;SDS011;27926;48.062;7.474;2023-02-26T14:27:43;4.68;;;1.10;;
42260;SDS011;27926;48.062;7.474;2023-02-26T14:32:32;3.08;;;1.42;;
42260;SDS011;27926;48.062;7.474;2023-02-26T14:35:11;3.03;;;1.10;;
42260;SDS011;27926;48.062;7.474;2023-02-26T14:37:40;1.95;;;1.10;;
42260;SDS011;27926;48.062;7.474;2023-02-26T14:42:41;6.65;;;0.88;;
42260;SDS011;27926;48.062;7.474;2023-02-26T14:47:59;1.67;;;0.80;;
42260;SDS011;27926;48.062;7.474;2023-02-26T14:50:28;1.25;;;0.98;;
42260;SDS011;27926;48.062;7.474;2023-02-26T15:12:02;1.63;;;1.15;;
42260;SDS011;27926;48.062;7.474;2023-02-26T15:14:43;2.10;;;1.05;;
42260;SDS011;27926;48.062;7.474;2023-02-26T15:23:05;1.15;;;0.73;;
42260;SDS011;27926;48.062;7.474;2023-02-26T15:25:43;4.15;;;0.95;;
42260;SDS011;27926;48.062;7.474;2023-02-26T15:28:12;1.85;;;1.10;;
42260;SDS011;27926;48.062;7.474;2023-02-26T15:30:56;1.85;;;1.05;;
42260;SDS011;27926;48.062;7.474;2023-02-26T15:33:23;3.95;;;1.08;;
42260;SDS011;27926;48.062;7.474;2023-02-26T15:35:48;1.95;;;0.90;;
42260;SDS011;27926;48.062;7.474;2023-02-26T15:38:14;3.08;;;1.10;;
42260;SDS011;27926;48.062;7.474;2023-02-26T15:40:39;1.27;;;0.93;;
42260;SDS011;27926;48.062;7.474;2023-02-26T15:43:05;2.20;;;1.53;;
42260;SDS011;27926;48.062;7.474;2023-02-26T15:45:45;2.90;;;0.95;;
42260;SDS011;27926;48.062;7.474;2023-02-26T15:48:15;3.17;;;1.02;;
42260;SDS011;27926;48.062;7.474;2023-02-26T15:50:43;1.20;;;0.77;;
42260;SDS011;27926;48.062;7.474;2023-02-26T15:53:12;1.63;;;0.80;;
42260;SDS011;27926;48.062;7.474;2023-02-26T15:55:46;1.08;;;0.88;;
42260;SDS011;27926;48.062;7.474;2023-02-26T15:58:17;4.90;;;1.15;;
42260;SDS011;27926;48.062;7.474;2023-02-26T16:00:50;1.13;;;0.80;;
42260;SDS011;27926;48.062;7.474;2023-02-26T16:03:17;4.57;;;0.80;;
42260;SDS011;27926;48.062;7.474;2023-02-26T16:05:47;1.90;;;0.60;;
42260;SDS011;27926;48.062;7.474;2023-02-26T16:08:12;1.73;;;0.60;;
42260;SDS011;27926;48.062;7.474;2023-02-26T16:10:41;1.83;;;0.80;;
42260;SDS011;27926;48.062;7.474;2023-02-26T16:13:09;2.03;;;0.95;;
42260;SDS011;27926;48.062;7.474;2023-02-26T16:15:39;1.67;;;0.88;;
42260;SDS011;27926;48.062;7.474;2023-02-26T16:18:05;2.95;;;1.00;;
42260;SDS011;27926;48.062;7.474;2023-02-26T16:20:40;3.17;;;0.90;;
42260;SDS011;27926;48.062;7.474;2023-02-26T16:23:16;1.48;;;0.82;;
42260;SDS011;27926;48.062;7.474;2023-02-26T16:25:54;1.30;;;0.55;;
42260;SDS011;27926;48.062;7.474;2023-02-26T16:28:25;1.48;;;0.85;;
42260;SDS011;27926;48.062;7.474;2023-02-26T16:30:54;2.45;;;0.95;;
42260;SDS011;27926;48.062;7.474;2023-02-26T16:33:21;6.38;;;1.25;;
42260;SDS011;27926;48.062;7.474;2023-02-26T16:35:54;6.50;;;1.20;;
42260;SDS011;27926;48.062;7.474;2023-02-26T16:38:26;3.30;;;0.90;;
42260;SDS011;27926;48.062;7.474;2023-02-26T16:40:57;4.20;;;1.05;;
42260;SDS011;27926;48.062;7.474;2023-02-26T16:45:59;0.85;;;0.73;;
42260;SDS011;27926;48.062;7.474;2023-02-26T16:48:27;1.17;;;0.80;;
42260;SDS011;27926;48.062;7.474;2023-02-26T16:50:57;2.67;;;0.93;;
42260;SDS011;27926;48.062;7.474;2023-02-26T16:53:32;1.33;;;0.93;;
42260;SDS011;27926;48.062;7.474;2023-02-26T16:55:59;1.42;;;0.80;;
42260;SDS011;27926;48.062;7.474;2023-02-26T16:58:24;1.80;;;0.93;;
42260;SDS011;27926;48.062;7.474;2023-02-26T17:00:51;2.08;;;1.00;;
42260;SDS011;27926;48.062;7.474;2023-02-26T17:03:22;7.50;;;1.30;;
42260;SDS011;27926;48.062;7.474;2023-02-26T17:08:23;0.90;;;0.80;;
42260;SDS011;27926;48.062;7.474;2023-02-26T17:11:34;1.40;;;0.90;;
42260;SDS011;27926;48.062;7.474;2023-02-26T17:13:56;1.13;;;0.90;;
42260;SDS011;27926;48.062;7.474;2023-02-26T17:16:34;1.77;;;0.90;;
42260;SDS011;27926;48.062;7.474;2023-02-26T17:18:59;1.93;;;0.87;;
42260;SDS011;27926;48.062;7.474;2023-02-26T17:21:24;1.67;;;0.80;;
42260;SDS011;27926;48.062;7.474;2023-02-26T17:23:49;0.80;;;0.60;;
42260;SDS011;27926;48.062;7.474;2023-02-26T17:26:14;5.00;;;1.57;;
42260;SDS011;27926;48.062;7.474;2023-02-26T17:28:39;4.27;;;1.10;;
42260;SDS011;27926;48.062;7.474;2023-02-26T17:31:05;3.33;;;1.25;;
42260;SDS011;27926;48.062;7.474;2023-02-26T17:33:30;2.37;;;1.03;;
42260;SDS011;27926;48.062;7.474;2023-02-26T17:35:57;2.13;;;1.20;;
42260;SDS011;27926;48.062;7.474;2023-02-26T17:38:23;4.53;;;1.15;;
42260;SDS011;27926;48.062;7.474;2023-02-26T17:40:48;1.40;;;0.90;;
42260;SDS011;27926;48.062;7.474;2023-02-26T17:43:17;4.10;;;1.17;;
42260;SDS011;27926;48.062;7.474;2023-02-26T17:45:41;4.37;;;1.00;;
42260;SDS011;27926;48.062;7.474;2023-02-26T17:48:06;1.93;;;1.20;;
42260;SDS011;27926;48.062;7.474;2023-02-26T17:50:33;2.45;;;1.13;;
42260;SDS011;27926;48.062;7.474;2023-02-26T17:53:07;1.30;;;0.90;;
42260;SDS011;27926;48.062;7.474;2023-02-26T17:55:32;4.53;;;0.87;;
42260;SDS011;27926;48.062;7.474;2023-02-26T17:58:02;2.28;;;0.80;;
42260;SDS011;27926;48.062;7.474;2023-02-26T18:00:27;2.27;;;1.07;;
42260;SDS011;27926;48.062;7.474;2023-02-26T18:02:51;2.63;;;1.03;;
42260;SDS011;27926;48.062;7.474;2023-02-26T18:05:17;4.57;;;2.13;;
42260;SDS011;27926;48.062;7.474;2023-02-26T18:07:42;5.45;;;1.10;;
42260;SDS011;27926;48.062;7.474;2023-02-26T18:10:16;2.50;;;0.98;;
42260;SDS011;27926;48.062;7.474;2023-02-26T18:12:43;5.45;;;1.83;;
42260;SDS011;27926;48.062;7.474;2023-02-26T18:15:08;2.00;;;1.20;;